sensor_id;sensor_type;location;lat;lon;timestamp;temperature;humidity
21895;DHT22;11112;51.270;7.224;2023-05-13T00:02:05;15.50;99.90
21895;DHT22;11112;51.270;7.224;2023-05-13T00:04:33;15.50;99.90
21895;DHT22;11112;51.270;7.224;2023-05-13T00:07:00;15.50;99.90
21895;DHT22;11112;51.270;7.224;2023-05-13T00:09:28;15.40;99.90
21895;DHT22;11112;51.270;7.224;2023-05-13T00:11:55;15.50;99.90
21895;DHT22;11112;51.270;7.224;2023-05-13T00:14:22;15.40;99.90
21895;DHT22;11112;51.270;7.224;2023-05-13T00:16:49;15.40;99.90
21895;DHT22;11112;51.270;7.224;2023-05-13T00:19:16;15.40;99.90
21895;DHT22;11112;51.270;7.224;2023-05-13T00:21:43;15.40;99.90
21895;DHT22;11112;51.270;7.224;2023-05-13T00:24:11;15.40;99.90
21895;DHT22;11112;51.270;7.224;2023-05-13T00:26:39;15.40;99.90
21895;DHT22;11112;51.270;7.224;2023-05-13T00:29:06;15.40;99.90
21895;DHT22;11112;51.270;7.224;2023-05-13T00:31:33;15.40;99.90
21895;DHT22;11112;51.270;7.224;2023-05-13T00:34:00;15.40;99.90
21895;DHT22;11112;51.270;7.224;2023-05-13T00:36:28;15.30;99.90
21895;DHT22;11112;51.270;7.224;2023-05-13T00:38:55;15.40;99.90
21895;DHT22;11112;51.270;7.224;2023-05-13T00:41:22;15.30;99.90
21895;DHT22;11112;51.270;7.224;2023-05-13T00:43:54;15.30;99.90
21895;DHT22;11112;51.270;7.224;2023-05-13T00:46:21;15.30;99.90
21895;DHT22;11112;51.270;7.224;2023-05-13T00:48:49;15.20;99.90
21895;DHT22;11112;51.270;7.224;2023-05-13T00:51:16;15.20;99.90
21895;DHT22;11112;51.270;7.224;2023-05-13T00:53:44;15.30;99.90
21895;DHT22;11112;51.270;7.224;2023-05-13T00:56:11;15.20;99.90
21895;DHT22;11112;51.270;7.224;2023-05-13T00:58:39;15.20;99.90
21895;DHT22;11112;51.270;7.224;2023-05-13T01:01:14;15.20;99.90
21895;DHT22;11112;51.270;7.224;2023-05-13T01:03:49;15.10;99.90
21895;DHT22;11112;51.270;7.224;2023-05-13T01:06:29;15.20;99.90
21895;DHT22;11112;51.270;7.224;2023-05-13T01:09:07;15.20;99.90
21895;DHT22;11112;51.270;7.224;2023-05-13T01:11:39;15.20;99.90
21895;DHT22;11112;51.270;7.224;2023-05-13T01:14:10;15.20;99.90
21895;DHT22;11112;51.270;7.224;2023-05-13T01:16:45;15.10;99.90
21895;DHT22;11112;51.270;7.224;2023-05-13T01:19:25;15.10;99.90
21895;DHT22;11112;51.270;7.224;2023-05-13T01:22:03;15.10;99.90
21895;DHT22;11112;51.270;7.224;2023-05-13T01:24:32;15.10;99.90
21895;DHT22;11112;51.270;7.224;2023-05-13T01:26:59;15.10;99.90
21895;DHT22;11112;51.270;7.224;2023-05-13T01:29:27;15.10;99.90
21895;DHT22;11112;51.270;7.224;2023-05-13T01:31:55;15.10;99.90
21895;DHT22;11112;51.270;7.224;2023-05-13T01:34:24;15.10;99.90
21895;DHT22;11112;51.270;7.224;2023-05-13T01:36:52;15.10;99.90
21895;DHT22;11112;51.270;7.224;2023-05-13T01:39:21;15.10;99.90
21895;DHT22;11112;51.270;7.224;2023-05-13T01:41:49;15.10;99.90
21895;DHT22;11112;51.270;7.224;2023-05-13T01:44:16;15.00;99.90
21895;DHT22;11112;51.270;7.224;2023-05-13T01:46:43;15.10;99.90
21895;DHT22;11112;51.270;7.224;2023-05-13T01:49:11;15.10;99.90
21895;DHT22;11112;51.270;7.224;2023-05-13T01:51:38;15.00;99.90
21895;DHT22;11112;51.270;7.224;2023-05-13T01:54:06;15.10;99.90
21895;DHT22;11112;51.270;7.224;2023-05-13T01:56:34;15.10;99.90
21895;DHT22;11112;51.270;7.224;2023-05-13T01:59:04;15.00;99.90
21895;DHT22;11112;51.270;7.224;2023-05-13T02:01:31;15.00;99.90
21895;DHT22;11112;51.270;7.224;2023-05-13T02:03:58;15.00;99.90
21895;DHT22;11112;51.270;7.224;2023-05-13T02:06:25;14.90;99.90
21895;DHT22;11112;51.270;7.224;2023-05-13T02:08:53;14.90;99.90
21895;DHT22;11112;51.270;7.224;2023-05-13T02:11:20;14.90;99.90
21895;DHT22;11112;51.270;7.224;2023-05-13T02:13:48;14.90;99.90
21895;DHT22;11112;51.270;7.224;2023-05-13T02:16:16;14.90;99.90
21895;DHT22;11112;51.270;7.224;2023-05-13T02:18:43;14.90;99.90
21895;DHT22;11112;51.270;7.224;2023-05-13T02:21:11;14.90;99.90
21895;DHT22;11112;51.270;7.224;2023-05-13T02:23:38;14.90;99.90
21895;DHT22;11112;51.270;7.224;2023-05-13T02:26:05;14.90;99.90
21895;DHT22;11112;51.270;7.224;2023-05-13T02:28:32;14.90;99.90
21895;DHT22;11112;51.270;7.224;2023-05-13T02:31:00;14.90;99.90
21895;DHT22;11112;51.270;7.224;2023-05-13T02:33:27;14.80;99.90
21895;DHT22;11112;51.270;7.224;2023-05-13T02:35:54;14.80;99.90
21895;DHT22;11112;51.270;7.224;2023-05-13T02:38:22;14.80;99.90
21895;DHT22;11112;51.270;7.224;2023-05-13T02:40:49;14.80;99.90
21895;DHT22;11112;51.270;7.224;2023-05-13T02:43:17;14.70;99.90
21895;DHT22;11112;51.270;7.224;2023-05-13T02:45:44;14.70;99.90
21895;DHT22;11112;51.270;7.224;2023-05-13T02:48:13;14.70;99.90
21895;DHT22;11112;51.270;7.224;2023-05-13T02:50:40;14.70;99.90
21895;DHT22;11112;51.270;7.224;2023-05-13T02:53:07;14.70;99.90
21895;DHT22;11112;51.270;7.224;2023-05-13T02:55:34;14.70;99.90
21895;DHT22;11112;51.270;7.224;2023-05-13T02:58:01;14.70;99.90
21895;DHT22;11112;51.270;7.224;2023-05-13T03:00:29;14.70;99.90
21895;DHT22;11112;51.270;7.224;2023-05-13T03:02:56;14.70;99.90
21895;DHT22;11112;51.270;7.224;2023-05-13T03:05:24;14.70;99.90
21895;DHT22;11112;51.270;7.224;2023-05-13T03:07:51;14.70;99.90
21895;DHT22;11112;51.270;7.224;2023-05-13T03:10:22;14.70;99.90
21895;DHT22;11112;51.270;7.224;2023-05-13T03:12:49;14.70;99.90
21895;DHT22;11112;51.270;7.224;2023-05-13T03:15:16;14.70;99.90
21895;DHT22;11112;51.270;7.224;2023-05-13T03:17:43;14.70;99.90
21895;DHT22;11112;51.270;7.224;2023-05-13T03:20:14;14.70;99.90
21895;DHT22;11112;51.270;7.224;2023-05-13T03:22:43;14.60;99.90
21895;DHT22;11112;51.270;7.224;2023-05-13T03:25:10;14.70;99.90
21895;DHT22;11112;51.270;7.224;2023-05-13T03:27:37;14.60;99.90
21895;DHT22;11112;51.270;7.224;2023-05-13T03:30:05;14.60;99.90
21895;DHT22;11112;51.270;7.224;2023-05-13T03:32:34;14.60;99.90
21895;DHT22;11112;51.270;7.224;2023-05-13T03:35:01;14.50;99.90
21895;DHT22;11112;51.270;7.224;2023-05-13T03:37:29;14.50;99.90
21895;DHT22;11112;51.270;7.224;2023-05-13T03:39:57;14.50;99.90
21895;DHT22;11112;51.270;7.224;2023-05-13T03:42:24;14.50;99.90
21895;DHT22;11112;51.270;7.224;2023-05-13T03:44:52;14.50;99.90
21895;DHT22;11112;51.270;7.224;2023-05-13T03:47:21;14.50;99.90
21895;DHT22;11112;51.270;7.224;2023-05-13T03:49:48;14.40;99.90
21895;DHT22;11112;51.270;7.224;2023-05-13T03:52:18;14.50;99.90
21895;DHT22;11112;51.270;7.224;2023-05-13T03:54:45;14.50;99.70
21895;DHT22;11112;51.270;7.224;2023-05-13T03:57:14;14.40;99.90
21895;DHT22;11112;51.270;7.224;2023-05-13T03:59:41;14.40;99.90
21895;DHT22;11112;51.270;7.224;2023-05-13T04:02:08;14.40;99.70
21895;DHT22;11112;51.270;7.224;2023-05-13T04:04:35;14.40;99.80
21895;DHT22;11112;51.270;7.224;2023-05-13T04:07:02;14.40;99.60
21895;DHT22;11112;51.270;7.224;2023-05-13T04:09:29;14.40;99.50
21895;DHT22;11112;51.270;7.224;2023-05-13T04:11:57;14.30;99.60
21895;DHT22;11112;51.270;7.224;2023-05-13T04:14:26;14.40;99.60
21895;DHT22;11112;51.270;7.224;2023-05-13T04:16:52;14.40;99.60
21895;DHT22;11112;51.270;7.224;2023-05-13T04:19:19;14.40;99.60
21895;DHT22;11112;51.270;7.224;2023-05-13T04:21:47;14.40;99.60
21895;DHT22;11112;51.270;7.224;2023-05-13T04:24:15;14.40;99.60
21895;DHT22;11112;51.270;7.224;2023-05-13T04:26:42;14.40;99.70
21895;DHT22;11112;51.270;7.224;2023-05-13T04:29:09;14.40;99.70
21895;DHT22;11112;51.270;7.224;2023-05-13T04:31:38;14.40;99.70
21895;DHT22;11112;51.270;7.224;2023-05-13T04:34:05;14.40;99.70
21895;DHT22;11112;51.270;7.224;2023-05-13T04:36:33;14.40;99.70
21895;DHT22;11112;51.270;7.224;2023-05-13T04:39:00;14.40;99.80
21895;DHT22;11112;51.270;7.224;2023-05-13T04:41:27;14.40;99.70
21895;DHT22;11112;51.270;7.224;2023-05-13T04:43:56;14.40;99.70
21895;DHT22;11112;51.270;7.224;2023-05-13T04:46:23;14.40;99.80
21895;DHT22;11112;51.270;7.224;2023-05-13T04:48:52;14.40;99.80
21895;DHT22;11112;51.270;7.224;2023-05-13T04:51:19;14.40;99.80
21895;DHT22;11112;51.270;7.224;2023-05-13T04:53:46;14.40;99.90
21895;DHT22;11112;51.270;7.224;2023-05-13T04:56:13;14.40;99.90
21895;DHT22;11112;51.270;7.224;2023-05-13T04:58:41;14.40;99.90
21895;DHT22;11112;51.270;7.224;2023-05-13T05:01:09;14.40;99.90
21895;DHT22;11112;51.270;7.224;2023-05-13T05:03:36;14.40;99.80
21895;DHT22;11112;51.270;7.224;2023-05-13T05:06:05;14.40;99.90
21895;DHT22;11112;51.270;7.224;2023-05-13T05:08:33;14.50;99.90
21895;DHT22;11112;51.270;7.224;2023-05-13T05:11:00;14.40;99.90
21895;DHT22;11112;51.270;7.224;2023-05-13T05:13:27;14.50;99.90
21895;DHT22;11112;51.270;7.224;2023-05-13T05:15:55;14.50;99.90
21895;DHT22;11112;51.270;7.224;2023-05-13T05:18:25;14.60;99.90
21895;DHT22;11112;51.270;7.224;2023-05-13T05:20:52;14.60;99.90
21895;DHT22;11112;51.270;7.224;2023-05-13T05:23:21;14.70;99.90
21895;DHT22;11112;51.270;7.224;2023-05-13T05:25:49;14.70;99.90
21895;DHT22;11112;51.270;7.224;2023-05-13T05:28:18;14.70;99.90
21895;DHT22;11112;51.270;7.224;2023-05-13T05:30:46;14.80;99.90
21895;DHT22;11112;51.270;7.224;2023-05-13T05:33:13;14.80;99.90
21895;DHT22;11112;51.270;7.224;2023-05-13T05:35:41;14.80;99.90
21895;DHT22;11112;51.270;7.224;2023-05-13T05:38:10;14.70;99.90
21895;DHT22;11112;51.270;7.224;2023-05-13T05:40:41;14.70;99.90
21895;DHT22;11112;51.270;7.224;2023-05-13T05:43:11;14.70;99.90
21895;DHT22;11112;51.270;7.224;2023-05-13T05:45:40;14.70;99.90
21895;DHT22;11112;51.270;7.224;2023-05-13T05:48:08;14.70;99.90
21895;DHT22;11112;51.270;7.224;2023-05-13T05:50:37;14.80;99.90
21895;DHT22;11112;51.270;7.224;2023-05-13T05:53:04;14.80;99.90
21895;DHT22;11112;51.270;7.224;2023-05-13T05:55:32;14.90;99.90
21895;DHT22;11112;51.270;7.224;2023-05-13T05:58:03;14.90;99.90
21895;DHT22;11112;51.270;7.224;2023-05-13T06:00:32;14.90;99.90
21895;DHT22;11112;51.270;7.224;2023-05-13T06:03:00;15.00;99.90
21895;DHT22;11112;51.270;7.224;2023-05-13T06:05:28;15.00;99.90
21895;DHT22;11112;51.270;7.224;2023-05-13T06:07:56;15.00;99.90
21895;DHT22;11112;51.270;7.224;2023-05-13T06:10:23;15.10;99.90
21895;DHT22;11112;51.270;7.224;2023-05-13T06:12:50;15.10;99.90
21895;DHT22;11112;51.270;7.224;2023-05-13T06:15:20;15.10;99.90
21895;DHT22;11112;51.270;7.224;2023-05-13T06:17:48;15.10;99.90
21895;DHT22;11112;51.270;7.224;2023-05-13T06:20:18;15.20;99.90
21895;DHT22;11112;51.270;7.224;2023-05-13T06:22:45;15.20;99.70
21895;DHT22;11112;51.270;7.224;2023-05-13T06:25:13;15.20;99.50
21895;DHT22;11112;51.270;7.224;2023-05-13T06:27:41;15.20;99.20
21895;DHT22;11112;51.270;7.224;2023-05-13T06:30:09;15.20;99.20
21895;DHT22;11112;51.270;7.224;2023-05-13T06:32:39;15.20;99.20
21895;DHT22;11112;51.270;7.224;2023-05-13T06:35:06;15.30;99.20
21895;DHT22;11112;51.270;7.224;2023-05-13T06:37:34;15.30;99.20
21895;DHT22;11112;51.270;7.224;2023-05-13T06:40:01;15.40;99.60
21895;DHT22;11112;51.270;7.224;2023-05-13T06:42:31;15.30;99.10
21895;DHT22;11112;51.270;7.224;2023-05-13T06:45:06;15.40;99.10
21895;DHT22;11112;51.270;7.224;2023-05-13T06:47:34;15.40;98.90
21895;DHT22;11112;51.270;7.224;2023-05-13T06:50:03;15.40;99.00
21895;DHT22;11112;51.270;7.224;2023-05-13T06:52:31;15.40;98.90
21895;DHT22;11112;51.270;7.224;2023-05-13T06:54:59;15.30;98.80
21895;DHT22;11112;51.270;7.224;2023-05-13T06:57:27;15.40;99.10
21895;DHT22;11112;51.270;7.224;2023-05-13T06:59:55;15.40;98.90
21895;DHT22;11112;51.270;7.224;2023-05-13T07:02:23;15.40;99.10
21895;DHT22;11112;51.270;7.224;2023-05-13T07:04:51;15.40;99.20
21895;DHT22;11112;51.270;7.224;2023-05-13T07:07:20;15.50;99.30
21895;DHT22;11112;51.270;7.224;2023-05-13T07:09:50;15.50;99.10
21895;DHT22;11112;51.270;7.224;2023-05-13T07:12:17;15.50;99.10
21895;DHT22;11112;51.270;7.224;2023-05-13T07:14:44;15.80;99.50
21895;DHT22;11112;51.270;7.224;2023-05-13T07:17:12;16.10;97.50
21895;DHT22;11112;51.270;7.224;2023-05-13T07:19:39;16.20;97.40
21895;DHT22;11112;51.270;7.224;2023-05-13T07:22:11;16.40;97.30
21895;DHT22;11112;51.270;7.224;2023-05-13T07:24:40;16.50;97.30
21895;DHT22;11112;51.270;7.224;2023-05-13T07:27:08;16.60;97.40
21895;DHT22;11112;51.270;7.224;2023-05-13T07:29:36;16.70;97.10
21895;DHT22;11112;51.270;7.224;2023-05-13T07:32:05;16.80;96.80
21895;DHT22;11112;51.270;7.224;2023-05-13T07:34:33;16.90;96.60
21895;DHT22;11112;51.270;7.224;2023-05-13T07:37:01;16.90;96.20
21895;DHT22;11112;51.270;7.224;2023-05-13T07:39:29;16.90;96.20
21895;DHT22;11112;51.270;7.224;2023-05-13T07:42:00;17.00;96.10
21895;DHT22;11112;51.270;7.224;2023-05-13T07:44:28;17.00;95.50
21895;DHT22;11112;51.270;7.224;2023-05-13T07:46:55;17.00;95.80
21895;DHT22;11112;51.270;7.224;2023-05-13T07:49:23;17.10;95.80
21895;DHT22;11112;51.270;7.224;2023-05-13T07:51:51;17.20;96.00
21895;DHT22;11112;51.270;7.224;2023-05-13T07:54:18;17.20;95.90
21895;DHT22;11112;51.270;7.224;2023-05-13T07:56:46;17.30;95.90
21895;DHT22;11112;51.270;7.224;2023-05-13T07:59:15;17.30;95.80
21895;DHT22;11112;51.270;7.224;2023-05-13T08:01:43;17.40;95.90
21895;DHT22;11112;51.270;7.224;2023-05-13T08:04:11;17.50;94.30
21895;DHT22;11112;51.270;7.224;2023-05-13T08:06:39;17.50;94.40
21895;DHT22;11112;51.270;7.224;2023-05-13T08:09:06;17.60;94.50
21895;DHT22;11112;51.270;7.224;2023-05-13T08:11:36;17.50;93.90
21895;DHT22;11112;51.270;7.224;2023-05-13T08:14:04;17.60;94.70
21895;DHT22;11112;51.270;7.224;2023-05-13T08:16:35;17.60;94.00
21895;DHT22;11112;51.270;7.224;2023-05-13T08:19:02;17.60;93.40
21895;DHT22;11112;51.270;7.224;2023-05-13T08:21:30;17.70;92.70
21895;DHT22;11112;51.270;7.224;2023-05-13T08:23:57;17.60;92.80
21895;DHT22;11112;51.270;7.224;2023-05-13T08:26:30;17.70;92.60
21895;DHT22;11112;51.270;7.224;2023-05-13T08:29:00;17.80;92.80
21895;DHT22;11112;51.270;7.224;2023-05-13T08:31:28;17.80;91.40
21895;DHT22;11112;51.270;7.224;2023-05-13T08:33:58;17.80;91.50
21895;DHT22;11112;51.270;7.224;2023-05-13T08:36:25;17.70;91.90
21895;DHT22;11112;51.270;7.224;2023-05-13T08:38:53;17.70;91.80
21895;DHT22;11112;51.270;7.224;2023-05-13T08:41:20;17.70;91.90
21895;DHT22;11112;51.270;7.224;2023-05-13T08:43:49;17.70;92.00
21895;DHT22;11112;51.270;7.224;2023-05-13T08:46:20;17.80;92.00
21895;DHT22;11112;51.270;7.224;2023-05-13T08:48:50;17.80;92.10
21895;DHT22;11112;51.270;7.224;2023-05-13T08:51:21;17.80;91.80
21895;DHT22;11112;51.270;7.224;2023-05-13T08:53:49;17.80;92.40
21895;DHT22;11112;51.270;7.224;2023-05-13T08:56:18;17.90;92.60
21895;DHT22;11112;51.270;7.224;2023-05-13T08:58:47;17.90;93.20
21895;DHT22;11112;51.270;7.224;2023-05-13T09:01:15;17.90;93.10
21895;DHT22;11112;51.270;7.224;2023-05-13T09:03:54;17.90;93.10
21895;DHT22;11112;51.270;7.224;2023-05-13T09:06:28;18.00;93.50
21895;DHT22;11112;51.270;7.224;2023-05-13T09:08:58;18.00;93.90
21895;DHT22;11112;51.270;7.224;2023-05-13T09:11:27;18.10;94.10
21895;DHT22;11112;51.270;7.224;2023-05-13T09:13:58;18.10;94.30
21895;DHT22;11112;51.270;7.224;2023-05-13T09:16:27;18.20;94.00
21895;DHT22;11112;51.270;7.224;2023-05-13T09:18:57;18.20;94.50
21895;DHT22;11112;51.270;7.224;2023-05-13T09:21:27;18.30;94.30
21895;DHT22;11112;51.270;7.224;2023-05-13T09:24:07;18.30;94.70
21895;DHT22;11112;51.270;7.224;2023-05-13T09:26:35;18.30;94.90
21895;DHT22;11112;51.270;7.224;2023-05-13T09:29:17;18.30;94.90
21895;DHT22;11112;51.270;7.224;2023-05-13T09:31:50;18.40;95.10
21895;DHT22;11112;51.270;7.224;2023-05-13T09:34:24;18.40;95.10
21895;DHT22;11112;51.270;7.224;2023-05-13T09:36:59;18.50;94.90
21895;DHT22;11112;51.270;7.224;2023-05-13T09:39:28;18.50;92.80
21895;DHT22;11112;51.270;7.224;2023-05-13T09:41:58;18.60;93.00
21895;DHT22;11112;51.270;7.224;2023-05-13T09:44:27;18.60;92.90
21895;DHT22;11112;51.270;7.224;2023-05-13T09:46:55;18.60;92.30
21895;DHT22;11112;51.270;7.224;2023-05-13T09:49:24;18.50;93.20
21895;DHT22;11112;51.270;7.224;2023-05-13T09:51:52;18.60;92.10
21895;DHT22;11112;51.270;7.224;2023-05-13T09:54:23;18.60;92.20
21895;DHT22;11112;51.270;7.224;2023-05-13T09:56:57;18.70;92.40
21895;DHT22;11112;51.270;7.224;2023-05-13T09:59:25;18.60;92.40
21895;DHT22;11112;51.270;7.224;2023-05-13T10:01:54;18.70;91.60
21895;DHT22;11112;51.270;7.224;2023-05-13T10:04:27;18.70;91.50
21895;DHT22;11112;51.270;7.224;2023-05-13T10:06:55;18.70;91.90
21895;DHT22;11112;51.270;7.224;2023-05-13T10:09:35;18.70;91.40
21895;DHT22;11112;51.270;7.224;2023-05-13T10:12:09;18.70;90.90
21895;DHT22;11112;51.270;7.224;2023-05-13T10:14:41;18.70;91.70
21895;DHT22;11112;51.270;7.224;2023-05-13T10:17:11;18.70;92.00
21895;DHT22;11112;51.270;7.224;2023-05-13T10:19:39;18.70;91.10
21895;DHT22;11112;51.270;7.224;2023-05-13T10:22:07;18.70;90.90
21895;DHT22;11112;51.270;7.224;2023-05-13T10:24:37;18.70;91.10
21895;DHT22;11112;51.270;7.224;2023-05-13T10:27:08;18.80;90.50
21895;DHT22;11112;51.270;7.224;2023-05-13T10:29:37;18.90;91.10
21895;DHT22;11112;51.270;7.224;2023-05-13T10:32:07;18.90;90.50
21895;DHT22;11112;51.270;7.224;2023-05-13T10:34:36;18.90;90.90
21895;DHT22;11112;51.270;7.224;2023-05-13T10:37:21;18.90;89.10
21895;DHT22;11112;51.270;7.224;2023-05-13T11:02:44;19.00;90.00
21895;DHT22;11112;51.270;7.224;2023-05-13T11:06:13;19.00;89.70
21895;DHT22;11112;51.270;7.224;2023-05-13T11:09:36;19.10;89.40
21895;DHT22;11112;51.270;7.224;2023-05-13T11:13:19;19.10;88.60
21895;DHT22;11112;51.270;7.224;2023-05-13T11:20:18;19.20;87.90
21895;DHT22;11112;51.270;7.224;2023-05-13T11:23:16;19.20;87.50
21895;DHT22;11112;51.270;7.224;2023-05-13T11:26:27;19.20;87.40
21895;DHT22;11112;51.270;7.224;2023-05-13T11:31:14;19.30;87.70
21895;DHT22;11112;51.270;7.224;2023-05-13T11:35:58;19.30;87.80
21895;DHT22;11112;51.270;7.224;2023-05-13T11:38:25;19.30;86.10
21895;DHT22;11112;51.270;7.224;2023-05-13T11:40:54;19.30;84.70
21895;DHT22;11112;51.270;7.224;2023-05-13T11:43:22;19.40;86.60
21895;DHT22;11112;51.270;7.224;2023-05-13T11:45:51;19.30;87.80
21895;DHT22;11112;51.270;7.224;2023-05-13T11:48:20;19.40;86.50
21895;DHT22;11112;51.270;7.224;2023-05-13T11:50:48;19.40;87.10
21895;DHT22;11112;51.270;7.224;2023-05-13T11:53:20;19.40;86.20
21895;DHT22;11112;51.270;7.224;2023-05-13T11:55:48;19.40;87.30
21895;DHT22;11112;51.270;7.224;2023-05-13T11:58:16;19.40;87.20
21895;DHT22;11112;51.270;7.224;2023-05-13T12:00:43;19.50;85.90
21895;DHT22;11112;51.270;7.224;2023-05-13T12:03:23;19.40;86.60
21895;DHT22;11112;51.270;7.224;2023-05-13T12:05:59;19.50;82.90
21895;DHT22;11112;51.270;7.224;2023-05-13T12:08:29;19.60;79.50
21895;DHT22;11112;51.270;7.224;2023-05-13T12:10:59;19.60;74.40
21895;DHT22;11112;51.270;7.224;2023-05-13T12:13:30;19.70;77.50
21895;DHT22;11112;51.270;7.224;2023-05-13T12:15:57;19.60;78.60
21895;DHT22;11112;51.270;7.224;2023-05-13T12:18:25;19.60;76.90
21895;DHT22;11112;51.270;7.224;2023-05-13T12:20:56;19.60;76.60
21895;DHT22;11112;51.270;7.224;2023-05-13T12:23:24;19.60;74.40
21895;DHT22;11112;51.270;7.224;2023-05-13T12:25:54;19.70;71.40
21895;DHT22;11112;51.270;7.224;2023-05-13T12:28:23;19.70;72.90
21895;DHT22;11112;51.270;7.224;2023-05-13T12:30:52;19.70;72.60
21895;DHT22;11112;51.270;7.224;2023-05-13T12:33:22;19.80;71.40
21895;DHT22;11112;51.270;7.224;2023-05-13T12:35:51;19.80;68.90
21895;DHT22;11112;51.270;7.224;2023-05-13T12:38:21;19.90;68.20
21895;DHT22;11112;51.270;7.224;2023-05-13T12:40:50;19.90;65.20
21895;DHT22;11112;51.270;7.224;2023-05-13T12:43:22;19.90;65.20
21895;DHT22;11112;51.270;7.224;2023-05-13T12:45:52;19.90;65.30
21895;DHT22;11112;51.270;7.224;2023-05-13T12:48:23;19.90;63.10
21895;DHT22;11112;51.270;7.224;2023-05-13T12:50:51;19.90;61.60
21895;DHT22;11112;51.270;7.224;2023-05-13T12:53:20;19.90;62.90
21895;DHT22;11112;51.270;7.224;2023-05-13T12:55:48;19.80;65.60
21895;DHT22;11112;51.270;7.224;2023-05-13T12:58:15;19.80;64.00
21895;DHT22;11112;51.270;7.224;2023-05-13T13:00:44;19.80;66.30
21895;DHT22;11112;51.270;7.224;2023-05-13T13:03:12;19.80;64.20
21895;DHT22;11112;51.270;7.224;2023-05-13T13:05:42;19.80;62.40
21895;DHT22;11112;51.270;7.224;2023-05-13T13:08:09;19.80;62.80
21895;DHT22;11112;51.270;7.224;2023-05-13T13:10:37;19.80;62.40
21895;DHT22;11112;51.270;7.224;2023-05-13T13:13:04;19.80;61.30
21895;DHT22;11112;51.270;7.224;2023-05-13T13:15:32;19.80;63.20
21895;DHT22;11112;51.270;7.224;2023-05-13T13:18:00;19.70;64.40
21895;DHT22;11112;51.270;7.224;2023-05-13T13:20:30;19.80;65.10
21895;DHT22;11112;51.270;7.224;2023-05-13T13:22:59;19.90;67.50
21895;DHT22;11112;51.270;7.224;2023-05-13T13:25:30;19.90;66.80
21895;DHT22;11112;51.270;7.224;2023-05-13T13:27:58;19.90;67.60
21895;DHT22;11112;51.270;7.224;2023-05-13T13:30:25;19.90;68.30
21895;DHT22;11112;51.270;7.224;2023-05-13T13:32:53;19.80;68.40
21895;DHT22;11112;51.270;7.224;2023-05-13T13:35:22;19.90;66.90
21895;DHT22;11112;51.270;7.224;2023-05-13T13:37:49;19.80;65.30
21895;DHT22;11112;51.270;7.224;2023-05-13T13:40:19;19.80;66.20
21895;DHT22;11112;51.270;7.224;2023-05-13T13:42:46;19.70;65.00
21895;DHT22;11112;51.270;7.224;2023-05-13T13:45:15;19.70;63.40
21895;DHT22;11112;51.270;7.224;2023-05-13T13:47:42;19.70;64.50
21895;DHT22;11112;51.270;7.224;2023-05-13T13:50:10;19.60;63.50
21895;DHT22;11112;51.270;7.224;2023-05-13T13:52:38;19.60;62.10
21895;DHT22;11112;51.270;7.224;2023-05-13T13:55:06;19.60;62.20
21895;DHT22;11112;51.270;7.224;2023-05-13T13:57:36;19.60;60.50
21895;DHT22;11112;51.270;7.224;2023-05-13T14:00:04;19.60;61.10
21895;DHT22;11112;51.270;7.224;2023-05-13T14:02:33;19.60;61.80
21895;DHT22;11112;51.270;7.224;2023-05-13T14:05:03;19.60;61.10
21895;DHT22;11112;51.270;7.224;2023-05-13T14:07:32;19.70;62.30
21895;DHT22;11112;51.270;7.224;2023-05-13T14:10:03;19.70;63.00
21895;DHT22;11112;51.270;7.224;2023-05-13T14:12:32;19.70;63.70
21895;DHT22;11112;51.270;7.224;2023-05-13T14:15:00;19.80;63.70
21895;DHT22;11112;51.270;7.224;2023-05-13T14:17:31;19.70;63.80
21895;DHT22;11112;51.270;7.224;2023-05-13T14:19:58;19.80;63.60
21895;DHT22;11112;51.270;7.224;2023-05-13T14:22:26;19.80;65.20
21895;DHT22;11112;51.270;7.224;2023-05-13T14:24:53;19.80;64.80
21895;DHT22;11112;51.270;7.224;2023-05-13T14:27:22;19.90;65.70
21895;DHT22;11112;51.270;7.224;2023-05-13T14:29:49;19.90;65.90
21895;DHT22;11112;51.270;7.224;2023-05-13T14:32:17;20.00;68.30
21895;DHT22;11112;51.270;7.224;2023-05-13T14:34:44;20.00;68.40
21895;DHT22;11112;51.270;7.224;2023-05-13T14:37:11;20.00;68.70
21895;DHT22;11112;51.270;7.224;2023-05-13T14:39:40;20.00;68.30
21895;DHT22;11112;51.270;7.224;2023-05-13T14:42:08;20.00;69.50
21895;DHT22;11112;51.270;7.224;2023-05-13T14:44:38;19.90;69.90
21895;DHT22;11112;51.270;7.224;2023-05-13T14:47:08;19.80;70.90
21895;DHT22;11112;51.270;7.224;2023-05-13T14:49:37;19.60;72.20
21895;DHT22;11112;51.270;7.224;2023-05-13T14:52:05;19.50;74.20
21895;DHT22;11112;51.270;7.224;2023-05-13T14:54:33;19.40;76.40
21895;DHT22;11112;51.270;7.224;2023-05-13T14:57:02;19.30;79.40
21895;DHT22;11112;51.270;7.224;2023-05-13T14:59:32;19.30;83.20
21895;DHT22;11112;51.270;7.224;2023-05-13T15:02:02;19.20;88.20
21895;DHT22;11112;51.270;7.224;2023-05-13T15:04:30;19.00;88.90
21895;DHT22;11112;51.270;7.224;2023-05-13T15:07:01;18.90;89.50
21895;DHT22;11112;51.270;7.224;2023-05-13T15:09:30;18.90;90.50
21895;DHT22;11112;51.270;7.224;2023-05-13T15:11:59;18.70;91.40
21895;DHT22;11112;51.270;7.224;2023-05-13T15:14:26;18.70;90.60
21895;DHT22;11112;51.270;7.224;2023-05-13T15:16:53;18.60;90.80
21895;DHT22;11112;51.270;7.224;2023-05-13T15:19:22;18.60;91.40
21895;DHT22;11112;51.270;7.224;2023-05-13T15:21:49;18.60;91.40
21895;DHT22;11112;51.270;7.224;2023-05-13T15:24:17;18.60;91.70
21895;DHT22;11112;51.270;7.224;2023-05-13T15:26:44;18.60;91.20
21895;DHT22;11112;51.270;7.224;2023-05-13T15:29:14;18.60;91.10
21895;DHT22;11112;51.270;7.224;2023-05-13T15:31:42;18.60;91.40
21895;DHT22;11112;51.270;7.224;2023-05-13T15:34:11;18.70;92.70
21895;DHT22;11112;51.270;7.224;2023-05-13T15:36:40;18.70;93.80
21895;DHT22;11112;51.270;7.224;2023-05-13T15:39:07;18.60;94.90
21895;DHT22;11112;51.270;7.224;2023-05-13T15:41:36;18.60;95.10
21895;DHT22;11112;51.270;7.224;2023-05-13T15:44:04;18.60;95.30
21895;DHT22;11112;51.270;7.224;2023-05-13T15:46:32;18.60;95.80
21895;DHT22;11112;51.270;7.224;2023-05-13T15:49:03;18.60;95.50
21895;DHT22;11112;51.270;7.224;2023-05-13T15:51:31;18.60;96.00
21895;DHT22;11112;51.270;7.224;2023-05-13T15:54:02;18.60;96.00
21895;DHT22;11112;51.270;7.224;2023-05-13T15:56:29;18.60;95.80
21895;DHT22;11112;51.270;7.224;2023-05-13T15:58:56;18.60;96.00
21895;DHT22;11112;51.270;7.224;2023-05-13T16:01:24;18.60;96.90
21895;DHT22;11112;51.270;7.224;2023-05-13T16:03:51;18.60;97.20
21895;DHT22;11112;51.270;7.224;2023-05-13T16:06:18;18.60;96.90
21895;DHT22;11112;51.270;7.224;2023-05-13T16:08:45;18.60;96.40
21895;DHT22;11112;51.270;7.224;2023-05-13T16:11:14;18.50;97.30
21895;DHT22;11112;51.270;7.224;2023-05-13T16:13:42;18.50;96.90
21895;DHT22;11112;51.270;7.224;2023-05-13T16:16:09;18.50;96.80